sensor_id;sensor_type;location;lat;lon;timestamp;P1;durP1;ratioP1;P2;durP2;ratioP2
62724;SDS011;49026;52.600;4.694;2022-09-23T00:01:58;20.13;;;11.82;;
62724;SDS011;49026;52.600;4.694;2022-09-23T00:04:23;15.77;;;11.25;;
62724;SDS011;49026;52.600;4.694;2022-09-23T00:06:49;14.27;;;10.73;;
62724;SDS011;49026;52.600;4.694;2022-09-23T00:09:15;16.02;;;11.25;;
62724;SDS011;49026;52.600;4.694;2022-09-23T00:11:40;16.42;;;9.93;;
62724;SDS011;49026;52.600;4.694;2022-09-23T00:14:08;14.48;;;9.95;;
62724;SDS011;49026;52.600;4.694;2022-09-23T00:16:35;17.75;;;10.95;;
62724;SDS011;49026;52.600;4.694;2022-09-23T00:19:01;15.32;;;10.45;;
62724;SDS011;49026;52.600;4.694;2022-09-23T00:21:36;14.63;;;10.07;;
62724;SDS011;49026;52.600;4.694;2022-09-23T00:24:01;15.68;;;10.57;;
62724;SDS011;49026;52.600;4.694;2022-09-23T00:26:29;16.77;;;10.43;;
62724;SDS011;49026;52.600;4.694;2022-09-23T00:28:54;15.27;;;9.93;;
62724;SDS011;49026;52.600;4.694;2022-09-23T00:31:21;14.98;;;9.77;;
62724;SDS011;49026;52.600;4.694;2022-09-23T00:33:53;15.55;;;10.05;;
62724;SDS011;49026;52.600;4.694;2022-09-23T00:36:20;14.90;;;10.25;;
62724;SDS011;49026;52.600;4.694;2022-09-23T00:38:46;16.95;;;10.40;;
62724;SDS011;49026;52.600;4.694;2022-09-23T00:41:11;15.68;;;10.30;;
62724;SDS011;49026;52.600;4.694;2022-09-23T00:46:09;21.38;;;10.73;;
62724;SDS011;49026;52.600;4.694;2022-09-23T00:48:38;17.83;;;10.25;;
62724;SDS011;49026;52.600;4.694;2022-09-23T00:51:05;15.48;;;10.07;;
62724;SDS011;49026;52.600;4.694;2022-09-23T00:53:33;13.63;;;9.30;;
62724;SDS011;49026;52.600;4.694;2022-09-23T00:56:01;12.00;;;9.27;;
62724;SDS011;49026;52.600;4.694;2022-09-23T00:58:28;16.02;;;9.90;;
62724;SDS011;49026;52.600;4.694;2022-09-23T01:01:00;14.57;;;9.30;;
62724;SDS011;49026;52.600;4.694;2022-09-23T01:03:26;16.02;;;9.48;;
62724;SDS011;49026;52.600;4.694;2022-09-23T01:05:54;15.27;;;10.02;;
62724;SDS011;49026;52.600;4.694;2022-09-23T01:08:20;14.48;;;9.40;;
62724;SDS011;49026;52.600;4.694;2022-09-23T01:13:40;18.17;;;9.95;;
62724;SDS011;49026;52.600;4.694;2022-09-23T01:16:40;13.70;;;9.13;;
62724;SDS011;49026;52.600;4.694;2022-09-23T01:22:02;15.40;;;9.13;;
62724;SDS011;49026;52.600;4.694;2022-09-23T01:24:45;17.73;;;9.73;;
62724;SDS011;49026;52.600;4.694;2022-09-23T01:28:03;13.63;;;9.25;;
62724;SDS011;49026;52.600;4.694;2022-09-23T01:33:12;13.50;;;9.45;;
62724;SDS011;49026;52.600;4.694;2022-09-23T01:35:56;19.33;;;9.95;;
62724;SDS011;49026;52.600;4.694;2022-09-23T01:38:41;15.18;;;9.55;;
62724;SDS011;49026;52.600;4.694;2022-09-23T01:41:13;15.20;;;8.65;;
62724;SDS011;49026;52.600;4.694;2022-09-23T01:44:03;14.10;;;8.85;;
62724;SDS011;49026;52.600;4.694;2022-09-23T01:49:05;14.73;;;8.30;;
62724;SDS011;49026;52.600;4.694;2022-09-23T01:51:38;14.18;;;7.75;;
62724;SDS011;49026;52.600;4.694;2022-09-23T01:54:16;15.50;;;9.18;;
62724;SDS011;49026;52.600;4.694;2022-09-23T02:02:15;14.65;;;8.07;;
62724;SDS011;49026;52.600;4.694;2022-09-23T02:04:52;16.17;;;9.77;;
62724;SDS011;49026;52.600;4.694;2022-09-23T02:09:53;12.10;;;8.90;;
62724;SDS011;49026;52.600;4.694;2022-09-23T02:12:25;13.43;;;8.98;;
62724;SDS011;49026;52.600;4.694;2022-09-23T02:14:58;14.68;;;8.98;;
62724;SDS011;49026;52.600;4.694;2022-09-23T02:17:35;15.80;;;9.02;;
62724;SDS011;49026;52.600;4.694;2022-09-23T02:20:09;12.75;;;8.85;;
62724;SDS011;49026;52.600;4.694;2022-09-23T02:22:39;16.70;;;9.73;;
62724;SDS011;49026;52.600;4.694;2022-09-23T02:25:13;17.05;;;8.60;;
62724;SDS011;49026;52.600;4.694;2022-09-23T02:27:53;13.43;;;8.55;;
62724;SDS011;49026;52.600;4.694;2022-09-23T02:30:30;15.25;;;9.07;;
62724;SDS011;49026;52.600;4.694;2022-09-23T02:33:04;17.70;;;8.65;;
62724;SDS011;49026;52.600;4.694;2022-09-23T02:35:37;13.32;;;8.32;;
62724;SDS011;49026;52.600;4.694;2022-09-23T02:38:30;14.93;;;9.40;;
62724;SDS011;49026;52.600;4.694;2022-09-23T02:41:13;15.10;;;8.43;;
62724;SDS011;49026;52.600;4.694;2022-09-23T02:46:31;14.70;;;9.48;;
62724;SDS011;49026;52.600;4.694;2022-09-23T02:49:43;12.77;;;8.90;;
62724;SDS011;49026;52.600;4.694;2022-09-23T02:51:54;13.40;;;8.52;;
62724;SDS011;49026;52.600;4.694;2022-09-23T02:54:23;16.27;;;9.48;;
62724;SDS011;49026;52.600;4.694;2022-09-23T02:56:52;14.70;;;8.40;;
62724;SDS011;49026;52.600;4.694;2022-09-23T02:59:21;13.48;;;8.43;;
62724;SDS011;49026;52.600;4.694;2022-09-23T03:07:22;16.20;;;8.40;;
62724;SDS011;49026;52.600;4.694;2022-09-23T03:21:20;11.38;;;6.55;;
62724;SDS011;49026;52.600;4.694;2022-09-23T03:26:23;13.40;;;6.80;;
62724;SDS011;49026;52.600;4.694;2022-09-23T03:28:55;12.63;;;8.30;;
62724;SDS011;49026;52.600;4.694;2022-09-23T03:31:26;10.85;;;7.43;;
62724;SDS011;49026;52.600;4.694;2022-09-23T03:33:53;12.77;;;7.55;;
62724;SDS011;49026;52.600;4.694;2022-09-23T03:36:26;14.10;;;8.00;;
62724;SDS011;49026;52.600;4.694;2022-09-23T03:39:23;14.95;;;8.48;;
62724;SDS011;49026;52.600;4.694;2022-09-23T03:42:23;12.23;;;8.32;;
62724;SDS011;49026;52.600;4.694;2022-09-23T03:44:51;15.73;;;7.72;;
62724;SDS011;49026;52.600;4.694;2022-09-23T03:47:19;13.15;;;9.10;;
62724;SDS011;49026;52.600;4.694;2022-09-23T03:49:46;15.32;;;8.02;;
62724;SDS011;49026;52.600;4.694;2022-09-23T03:52:13;13.02;;;7.68;;
62724;SDS011;49026;52.600;4.694;2022-09-23T03:54:42;14.10;;;8.60;;
62724;SDS011;49026;52.600;4.694;2022-09-23T03:57:10;10.65;;;7.53;;
62724;SDS011;49026;52.600;4.694;2022-09-23T03:59:36;11.02;;;6.97;;
62724;SDS011;49026;52.600;4.694;2022-09-23T04:02:05;14.30;;;7.57;;
62724;SDS011;49026;52.600;4.694;2022-09-23T04:04:32;13.80;;;8.43;;
62724;SDS011;49026;52.600;4.694;2022-09-23T04:06:59;11.10;;;7.55;;
62724;SDS011;49026;52.600;4.694;2022-09-23T04:09:25;15.93;;;7.93;;
62724;SDS011;49026;52.600;4.694;2022-09-23T04:11:51;14.82;;;8.32;;
62724;SDS011;49026;52.600;4.694;2022-09-23T04:14:20;14.57;;;7.55;;
62724;SDS011;49026;52.600;4.694;2022-09-23T04:16:46;10.55;;;6.95;;
62724;SDS011;49026;52.600;4.694;2022-09-23T04:19:13;13.13;;;7.75;;
62724;SDS011;49026;52.600;4.694;2022-09-23T04:21:39;10.65;;;7.55;;
62724;SDS011;49026;52.600;4.694;2022-09-23T04:24:05;13.07;;;7.97;;
62724;SDS011;49026;52.600;4.694;2022-09-23T04:26:32;10.63;;;7.53;;
62724;SDS011;49026;52.600;4.694;2022-09-23T04:29:00;15.70;;;7.53;;
62724;SDS011;49026;52.600;4.694;2022-09-23T04:31:26;11.82;;;7.45;;
62724;SDS011;49026;52.600;4.694;2022-09-23T04:33:52;10.55;;;7.68;;
62724;SDS011;49026;52.600;4.694;2022-09-23T04:36:20;12.30;;;7.35;;
62724;SDS011;49026;52.600;4.694;2022-09-23T04:38:46;13.20;;;8.00;;
62724;SDS011;49026;52.600;4.694;2022-09-23T04:41:13;16.52;;;8.65;;
62724;SDS011;49026;52.600;4.694;2022-09-23T04:43:39;12.82;;;8.50;;
62724;SDS011;49026;52.600;4.694;2022-09-23T04:46:05;12.70;;;7.93;;
62724;SDS011;49026;52.600;4.694;2022-09-23T04:48:35;11.73;;;7.68;;
62724;SDS011;49026;52.600;4.694;2022-09-23T04:51:06;17.75;;;8.98;;
62724;SDS011;49026;52.600;4.694;2022-09-23T04:53:35;13.23;;;8.30;;
62724;SDS011;49026;52.600;4.694;2022-09-23T04:56:02;10.70;;;7.28;;
62724;SDS011;49026;52.600;4.694;2022-09-23T04:58:32;12.23;;;8.60;;
62724;SDS011;49026;52.600;4.694;2022-09-23T05:01:06;12.77;;;7.93;;
62724;SDS011;49026;52.600;4.694;2022-09-23T05:03:33;10.90;;;7.80;;
62724;SDS011;49026;52.600;4.694;2022-09-23T05:05:59;12.70;;;8.35;;
62724;SDS011;49026;52.600;4.694;2022-09-23T05:08:28;14.55;;;8.15;;
62724;SDS011;49026;52.600;4.694;2022-09-23T05:10:57;10.65;;;7.07;;
62724;SDS011;49026;52.600;4.694;2022-09-23T05:13:23;13.32;;;8.27;;
62724;SDS011;49026;52.600;4.694;2022-09-23T05:18:47;12.23;;;7.78;;
62724;SDS011;49026;52.600;4.694;2022-09-23T05:21:21;13.40;;;8.10;;
62724;SDS011;49026;52.600;4.694;2022-09-23T05:23:51;11.55;;;8.55;;
62724;SDS011;49026;52.600;4.694;2022-09-23T05:26:21;11.43;;;7.82;;
62724;SDS011;49026;52.600;4.694;2022-09-23T05:28:50;11.38;;;7.13;;
62724;SDS011;49026;52.600;4.694;2022-09-23T05:31:18;11.82;;;7.88;;
62724;SDS011;49026;52.600;4.694;2022-09-23T05:33:55;11.57;;;7.93;;
62724;SDS011;49026;52.600;4.694;2022-09-23T05:36:30;10.57;;;7.45;;
62724;SDS011;49026;52.600;4.694;2022-09-23T05:38:57;13.52;;;8.57;;
62724;SDS011;49026;52.600;4.694;2022-09-23T05:41:23;13.98;;;8.55;;
62724;SDS011;49026;52.600;4.694;2022-09-23T05:43:50;12.27;;;8.13;;
62724;SDS011;49026;52.600;4.694;2022-09-23T05:46:28;14.93;;;8.82;;
62724;SDS011;49026;52.600;4.694;2022-09-23T05:48:56;15.83;;;8.97;;
62724;SDS011;49026;52.600;4.694;2022-09-23T05:51:24;11.88;;;8.48;;
62724;SDS011;49026;52.600;4.694;2022-09-23T05:53:51;20.33;;;9.07;;
62724;SDS011;49026;52.600;4.694;2022-09-23T05:56:27;22.48;;;10.55;;
62724;SDS011;49026;52.600;4.694;2022-09-23T05:58:53;13.77;;;9.43;;
62724;SDS011;49026;52.600;4.694;2022-09-23T06:01:20;15.10;;;9.75;;
62724;SDS011;49026;52.600;4.694;2022-09-23T06:06:35;13.68;;;8.68;;
62724;SDS011;49026;52.600;4.694;2022-09-23T06:09:02;18.85;;;10.27;;
62724;SDS011;49026;52.600;4.694;2022-09-23T06:11:31;16.85;;;10.02;;
62724;SDS011;49026;52.600;4.694;2022-09-23T06:14:00;15.35;;;10.60;;
62724;SDS011;49026;52.600;4.694;2022-09-23T06:16:29;16.88;;;10.65;;
62724;SDS011;49026;52.600;4.694;2022-09-23T06:18:56;12.98;;;9.93;;
62724;SDS011;49026;52.600;4.694;2022-09-23T06:21:29;16.35;;;10.10;;
62724;SDS011;49026;52.600;4.694;2022-09-23T06:23:57;16.85;;;11.07;;
62724;SDS011;49026;52.600;4.694;2022-09-23T06:26:28;19.83;;;12.60;;
62724;SDS011;49026;52.600;4.694;2022-09-23T06:28:56;15.45;;;11.40;;
62724;SDS011;49026;52.600;4.694;2022-09-23T06:31:24;16.50;;;11.07;;
62724;SDS011;49026;52.600;4.694;2022-09-23T06:33:50;19.15;;;10.95;;
62724;SDS011;49026;52.600;4.694;2022-09-23T06:36:15;21.83;;;11.25;;
62724;SDS011;49026;52.600;4.694;2022-09-23T06:38:42;14.38;;;11.65;;
62724;SDS011;49026;52.600;4.694;2022-09-23T06:41:13;17.65;;;12.02;;
62724;SDS011;49026;52.600;4.694;2022-09-23T06:43:40;16.67;;;11.93;;
62724;SDS011;49026;52.600;4.694;2022-09-23T06:46:07;17.98;;;13.32;;
62724;SDS011;49026;52.600;4.694;2022-09-23T06:48:36;19.48;;;12.85;;
62724;SDS011;49026;52.600;4.694;2022-09-23T06:53:35;17.40;;;10.13;;
62724;SDS011;49026;52.600;4.694;2022-09-23T06:56:03;22.45;;;12.65;;
62724;SDS011;49026;52.600;4.694;2022-09-23T06:58:31;23.15;;;12.88;;
62724;SDS011;49026;52.600;4.694;2022-09-23T07:01:01;16.30;;;11.93;;
62724;SDS011;49026;52.600;4.694;2022-09-23T07:03:28;18.10;;;12.90;;
62724;SDS011;49026;52.600;4.694;2022-09-23T07:06:01;21.00;;;13.02;;
62724;SDS011;49026;52.600;4.694;2022-09-23T07:08:29;18.88;;;13.63;;
62724;SDS011;49026;52.600;4.694;2022-09-23T07:10:58;18.75;;;13.07;;
62724;SDS011;49026;52.600;4.694;2022-09-23T07:13:25;17.88;;;12.18;;
62724;SDS011;49026;52.600;4.694;2022-09-23T07:15:51;16.55;;;11.85;;
62724;SDS011;49026;52.600;4.694;2022-09-23T07:18:20;19.70;;;14.00;;
62724;SDS011;49026;52.600;4.694;2022-09-23T07:20:54;24.27;;;12.73;;
62724;SDS011;49026;52.600;4.694;2022-09-23T07:23:22;20.90;;;14.68;;
62724;SDS011;49026;52.600;4.694;2022-09-23T07:25:51;21.75;;;13.93;;
62724;SDS011;49026;52.600;4.694;2022-09-23T07:28:17;21.20;;;13.80;;
62724;SDS011;49026;52.600;4.694;2022-09-23T07:30:43;22.65;;;15.30;;
62724;SDS011;49026;52.600;4.694;2022-09-23T07:33:11;21.33;;;14.77;;
62724;SDS011;49026;52.600;4.694;2022-09-23T07:35:37;21.60;;;14.30;;
62724;SDS011;49026;52.600;4.694;2022-09-23T07:38:05;18.25;;;13.50;;
62724;SDS011;49026;52.600;4.694;2022-09-23T07:40:31;18.80;;;13.80;;
62724;SDS011;49026;52.600;4.694;2022-09-23T07:42:59;20.88;;;13.85;;
62724;SDS011;49026;52.600;4.694;2022-09-23T07:45:24;22.13;;;14.52;;
62724;SDS011;49026;52.600;4.694;2022-09-23T07:47:51;21.63;;;13.68;;
62724;SDS011;49026;52.600;4.694;2022-09-23T07:50:17;19.17;;;13.68;;
62724;SDS011;49026;52.600;4.694;2022-09-23T07:52:45;22.38;;;14.20;;
62724;SDS011;49026;52.600;4.694;2022-09-23T07:55:10;20.00;;;14.18;;
62724;SDS011;49026;52.600;4.694;2022-09-23T07:57:37;21.45;;;13.07;;
62724;SDS011;49026;52.600;4.694;2022-09-23T08:00:03;20.65;;;14.25;;
62724;SDS011;49026;52.600;4.694;2022-09-23T08:02:29;20.92;;;14.30;;
62724;SDS011;49026;52.600;4.694;2022-09-23T08:04:55;19.35;;;14.98;;
62724;SDS011;49026;52.600;4.694;2022-09-23T08:07:20;22.90;;;14.75;;
62724;SDS011;49026;52.600;4.694;2022-09-23T08:09:49;22.08;;;15.15;;
62724;SDS011;49026;52.600;4.694;2022-09-23T08:12:16;21.30;;;14.50;;
62724;SDS011;49026;52.600;4.694;2022-09-23T08:14:45;19.23;;;13.30;;
62724;SDS011;49026;52.600;4.694;2022-09-23T08:17:10;21.85;;;15.20;;
62724;SDS011;49026;52.600;4.694;2022-09-23T08:19:36;20.60;;;13.63;;
62724;SDS011;49026;52.600;4.694;2022-09-23T08:22:02;26.05;;;15.45;;
62724;SDS011;49026;52.600;4.694;2022-09-23T08:24:27;23.23;;;15.13;;
62724;SDS011;49026;52.600;4.694;2022-09-23T08:26:54;18.08;;;13.98;;
62724;SDS011;49026;52.600;4.694;2022-09-23T08:29:22;17.58;;;12.98;;
62724;SDS011;49026;52.600;4.694;2022-09-23T08:31:49;18.60;;;14.10;;
62724;SDS011;49026;52.600;4.694;2022-09-23T08:34:15;28.85;;;14.65;;
62724;SDS011;49026;52.600;4.694;2022-09-23T08:36:47;26.20;;;14.80;;
62724;SDS011;49026;52.600;4.694;2022-09-23T08:39:13;25.65;;;16.10;;
62724;SDS011;49026;52.600;4.694;2022-09-23T08:44:24;22.63;;;15.20;;
62724;SDS011;49026;52.600;4.694;2022-09-23T08:49:29;28.35;;;19.15;;
62724;SDS011;49026;52.600;4.694;2022-09-23T08:52:00;23.75;;;16.08;;
62724;SDS011;49026;52.600;4.694;2022-09-23T08:54:36;30.33;;;18.17;;
62724;SDS011;49026;52.600;4.694;2022-09-23T08:57:01;27.17;;;18.42;;
62724;SDS011;49026;52.600;4.694;2022-09-23T09:02:04;26.13;;;19.40;;
62724;SDS011;49026;52.600;4.694;2022-09-23T09:04:44;22.83;;;17.48;;
62724;SDS011;49026;52.600;4.694;2022-09-23T09:07:17;25.05;;;18.15;;
62724;SDS011;49026;52.600;4.694;2022-09-23T09:17:47;21.40;;;16.83;;
62724;SDS011;49026;52.600;4.694;2022-09-23T09:20:28;24.08;;;14.70;;
62724;SDS011;49026;52.600;4.694;2022-09-23T09:22:59;24.30;;;14.82;;
62724;SDS011;49026;52.600;4.694;2022-09-23T09:25:52;16.05;;;13.05;;
62724;SDS011;49026;52.600;4.694;2022-09-23T09:31:01;21.83;;;13.68;;
62724;SDS011;49026;52.600;4.694;2022-09-23T09:34:01;21.52;;;13.38;;
62724;SDS011;49026;52.600;4.694;2022-09-23T09:39:02;20.45;;;14.00;;
62724;SDS011;49026;52.600;4.694;2022-09-23T09:41:28;21.63;;;14.55;;
62724;SDS011;49026;52.600;4.694;2022-09-23T09:43:56;19.42;;;14.18;;
62724;SDS011;49026;52.600;4.694;2022-09-23T09:51:38;16.80;;;13.38;;
62724;SDS011;49026;52.600;4.694;2022-09-23T09:57:02;24.55;;;15.65;;
62724;SDS011;49026;52.600;4.694;2022-09-23T09:59:30;22.52;;;14.05;;
62724;SDS011;49026;52.600;4.694;2022-09-23T10:04:43;19.23;;;13.70;;
62724;SDS011;49026;52.600;4.694;2022-09-23T10:07:12;24.92;;;14.30;;
62724;SDS011;49026;52.600;4.694;2022-09-23T10:09:40;18.90;;;14.05;;
62724;SDS011;49026;52.600;4.694;2022-09-23T10:14:51;21.40;;;14.45;;
62724;SDS011;49026;52.600;4.694;2022-09-23T10:19:53;27.20;;;17.58;;
62724;SDS011;49026;52.600;4.694;2022-09-23T10:22:25;20.67;;;13.82;;
62724;SDS011;49026;52.600;4.694;2022-09-23T10:25:05;28.90;;;15.25;;
62724;SDS011;49026;52.600;4.694;2022-09-23T10:27:34;20.08;;;14.00;;
62724;SDS011;49026;52.600;4.694;2022-09-23T10:30:44;23.83;;;14.00;;
62724;SDS011;49026;52.600;4.694;2022-09-23T10:32:52;20.97;;;14.27;;
62724;SDS011;49026;52.600;4.694;2022-09-23T10:35:22;22.60;;;14.13;;
62724;SDS011;49026;52.600;4.694;2022-09-23T10:38:00;27.00;;;14.88;;
62724;SDS011;49026;52.600;4.694;2022-09-23T10:40:31;19.50;;;12.38;;
62724;SDS011;49026;52.600;4.694;2022-09-23T11:16:53;20.23;;;13.13;;
62724;SDS011;49026;52.600;4.694;2022-09-23T11:30:39;21.48;;;12.27;;
62724;SDS011;49026;52.600;4.694;2022-09-23T11:35:55;18.58;;;11.90;;
62724;SDS011;49026;52.600;4.694;2022-09-23T11:38:34;21.75;;;12.38;;
62724;SDS011;49026;52.600;4.694;2022-09-23T11:41:14;22.88;;;12.43;;
62724;SDS011;49026;52.600;4.694;2022-09-23T11:43:45;17.73;;;11.88;;
62724;SDS011;49026;52.600;4.694;2022-09-23T11:51:38;17.52;;;10.80;;
62724;SDS011;49026;52.600;4.694;2022-09-23T11:54:28;19.98;;;11.77;;
62724;SDS011;49026;52.600;4.694;2022-09-23T11:57:05;15.27;;;10.95;;
62724;SDS011;49026;52.600;4.694;2022-09-23T11:59:43;22.23;;;12.27;;
62724;SDS011;49026;52.600;4.694;2022-09-23T12:02:29;19.70;;;11.43;;
62724;SDS011;49026;52.600;4.694;2022-09-23T12:05:04;23.27;;;12.10;;
62724;SDS011;49026;52.600;4.694;2022-09-23T12:07:42;18.95;;;11.98;;
62724;SDS011;49026;52.600;4.694;2022-09-23T12:11:15;21.63;;;11.57;;
62724;SDS011;49026;52.600;4.694;2022-09-23T12:13:29;22.75;;;11.93;;
62724;SDS011;49026;52.600;4.694;2022-09-23T12:24:46;18.50;;;11.23;;
62724;SDS011;49026;52.600;4.694;2022-09-23T12:27:32;17.73;;;12.55;;
62724;SDS011;49026;52.600;4.694;2022-09-23T12:30:10;18.45;;;11.02;;
62724;SDS011;49026;52.600;4.694;2022-09-23T12:32:39;17.77;;;10.93;;
62724;SDS011;49026;52.600;4.694;2022-09-23T12:35:17;16.92;;;10.27;;
62724;SDS011;49026;52.600;4.694;2022-09-23T12:45:54;18.90;;;11.65;;
62724;SDS011;49026;52.600;4.694;2022-09-23T12:48:56;22.60;;;10.60;;
62724;SDS011;49026;52.600;4.694;2022-09-23T12:51:28;17.42;;;10.77;;
62724;SDS011;49026;52.600;4.694;2022-09-23T12:53:58;16.40;;;10.27;;
62724;SDS011;49026;52.600;4.694;2022-09-23T12:56:27;13.55;;;10.20;;
62724;SDS011;49026;52.600;4.694;2022-09-23T13:02:30;14.35;;;9.55;;
62724;SDS011;49026;52.600;4.694;2022-09-23T13:08:04;14.13;;;10.18;;
62724;SDS011;49026;52.600;4.694;2022-09-23T13:10:33;14.50;;;9.68;;
62724;SDS011;49026;52.600;4.694;2022-09-23T13:13:06;16.08;;;10.00;;
62724;SDS011;49026;52.600;4.694;2022-09-23T13:15:44;12.18;;;8.00;;
62724;SDS011;49026;52.600;4.694;2022-09-23T13:20:47;9.23;;;6.55;;
62724;SDS011;49026;52.600;4.694;2022-09-23T13:25:56;9.43;;;6.38;;
62724;SDS011;49026;52.600;4.694;2022-09-23T13:28:29;10.15;;;6.60;;
62724;SDS011;49026;52.600;4.694;2022-09-23T13:31:03;13.15;;;7.03;;
62724;SDS011;49026;52.600;4.694;2022-09-23T13:36:18;13.80;;;7.80;;
62724;SDS011;49026;52.600;4.694;2022-09-23T13:38:45;11.27;;;7.78;;
62724;SDS011;49026;52.600;4.694;2022-09-23T13:41:12;13.63;;;8.30;;
62724;SDS011;49026;52.600;4.694;2022-09-23T13:43:40;19.45;;;8.75;;
62724;SDS011;49026;52.600;4.694;2022-09-23T13:46:14;10.77;;;8.50;;
62724;SDS011;49026;52.600;4.694;2022-09-23T13:48:42;10.50;;;7.78;;
62724;SDS011;49026;52.600;4.694;2022-09-23T13:51:15;16.52;;;8.57;;
62724;SDS011;49026;52.600;4.694;2022-09-23T13:53:53;13.70;;;8.52;;
62724;SDS011;49026;52.600;4.694;2022-09-23T13:56:20;13.05;;;8.63;;
62724;SDS011;49026;52.600;4.694;2022-09-23T13:58:46;15.50;;;9.85;;
62724;SDS011;49026;52.600;4.694;2022-09-23T14:01:29;14.07;;;10.40;;
62724;SDS011;49026;52.600;4.694;2022-09-23T14:03:57;16.00;;;9.27;;
62724;SDS011;49026;52.600;4.694;2022-09-23T14:06:25;13.10;;;9.85;;
62724;SDS011;49026;52.600;4.694;2022-09-23T14:08:53;14.80;;;9.38;;
62724;SDS011;49026;52.600;4.694;2022-09-23T14:11:27;16.33;;;8.73;;
62724;SDS011;49026;52.600;4.694;2022-09-23T14:13:58;19.63;;;9.98;;
62724;SDS011;49026;52.600;4.694;2022-09-23T14:16:29;15.63;;;8.85;;
62724;SDS011;49026;52.600;4.694;2022-09-23T14:18:55;19.65;;;9.35;;
62724;SDS011;49026;52.600;4.694;2022-09-23T14:21:36;16.75;;;10.60;;
62724;SDS011;49026;52.600;4.694;2022-09-23T14:24:28;15.68;;;10.85;;
62724;SDS011;49026;52.600;4.694;2022-09-23T14:26:51;20.35;;;10.18;;
62724;SDS011;49026;52.600;4.694;2022-09-23T14:29:22;15.40;;;9.27;;
62724;SDS011;49026;52.600;4.694;2022-09-23T14:31:54;21.55;;;11.32;;
62724;SDS011;49026;52.600;4.694;2022-09-23T14:34:41;17.77;;;10.80;;
62724;SDS011;49026;52.600;4.694;2022-09-23T14:37:55;20.00;;;10.32;;
62724;SDS011;49026;52.600;4.694;2022-09-23T14:40:21;17.98;;;11.20;;
62724;SDS011;49026;52.600;4.694;2022-09-23T14:45:23;22.05;;;13.52;;
62724;SDS011;49026;52.600;4.694;2022-09-23T14:48:00;23.63;;;13.52;;
62724;SDS011;49026;52.600;4.694;2022-09-23T14:50:31;19.45;;;12.57;;
62724;SDS011;49026;52.600;4.694;2022-09-23T14:55:51;21.20;;;13.10;;
62724;SDS011;49026;52.600;4.694;2022-09-23T14:58:21;16.85;;;10.40;;
62724;SDS011;49026;52.600;4.694;2022-09-23T15:00:59;15.13;;;11.77;;
62724;SDS011;49026;52.600;4.694;2022-09-23T15:03:28;16.98;;;10.63;;
62724;SDS011;49026;52.600;4.694;2022-09-23T15:05:57;17.73;;;10.07;;
62724;SDS011;49026;52.600;4.694;2022-09-23T15:08:29;21.52;;;10.80;;
62724;SDS011;49026;52.600;4.694;2022-09-23T15:10:57;16.15;;;11.32;;
62724;SDS011;49026;52.600;4.694;2022-09-23T15:13:28;20.77;;;8.45;;
62724;SDS011;49026;52.600;4.694;2022-09-23T15:15:55;23.20;;;12.02;;
62724;SDS011;49026;52.600;4.694;2022-09-23T15:18:23;15.77;;;12.57;;
62724;SDS011;49026;52.600;4.694;2022-09-23T15:20:51;26.30;;;15.43;;
62724;SDS011;49026;52.600;4.694;2022-09-23T15:23:34;18.35;;;9.80;;
62724;SDS011;49026;52.600;4.694;2022-09-23T15:29:03;19.95;;;12.57;;
62724;SDS011;49026;52.600;4.694;2022-09-23T15:31:36;23.45;;;14.70;;
62724;SDS011;49026;52.600;4.694;2022-09-23T15:34:02;28.60;;;17.75;;
62724;SDS011;49026;52.600;4.694;2022-09-23T15:36:29;26.70;;;16.92;;
62724;SDS011;49026;52.600;4.694;2022-09-23T15:39:00;28.70;;;17.95;;
62724;SDS011;49026;52.600;4.694;2022-09-23T15:41:26;32.13;;;18.90;;
62724;SDS011;49026;52.600;4.694;2022-09-23T15:43:51;24.58;;;15.45;;
62724;SDS011;49026;52.600;4.694;2022-09-23T15:46:26;27.25;;;16.15;;
62724;SDS011;49026;52.600;4.694;2022-09-23T15:51:20;27.98;;;17.58;;
62724;SDS011;49026;52.600;4.694;2022-09-23T15:53:47;30.90;;;19.20;;
62724;SDS011;49026;52.600;4.694;2022-09-23T15:56:12;30.60;;;19.67;;
62724;SDS011;49026;52.600;4.694;2022-09-23T15:58:38;28.65;;;19.42;;
62724;SDS011;49026;52.600;4.694;2022-09-23T16:01:05;33.78;;;21.63;;
62724;SDS011;49026;52.600;4.694;2022-09-23T16:03:31;32.03;;;19.83;;
62724;SDS011;49026;52.600;4.694;2022-09-23T16:06:00;28.67;;;19.13;;
62724;SDS011;49026;52.600;4.694;2022-09-23T16:08:28;28.38;;;18.02;;
62724;SDS011;49026;52.600;4.694;2022-09-23T16:10:56;36.03;;;19.40;;
62724;SDS011;49026;52.600;4.694;2022-09-23T16:13:25;28.55;;;18.75;;
62724;SDS011;49026;52.600;4.694;2022-09-23T16:15:50;32.90;;;18.60;;
62724;SDS011;49026;52.600;4.694;2022-09-23T16:18:18;38.05;;;19.92;;
62724;SDS011;49026;52.600;4.694;2022-09-23T16:20:44;23.38;;;18.35;;
62724;SDS011;49026;52.600;4.694;2022-09-23T16:23:21;28.25;;;18.27;;
62724;SDS011;49026;52.600;4.694;2022-09-23T16:26:09;35.40;;;21.58;;
62724;SDS011;49026;52.600;4.694;2022-09-23T16:31:06;38.13;;;23.90;;
62724;SDS011;49026;52.600;4.694;2022-09-23T16:33:34;40.70;;;23.88;;
62724;SDS011;49026;52.600;4.694;2022-09-23T16:36:00;44.65;;;26.25;;
62724;SDS011;49026;52.600;4.694;2022-09-23T16:38:25;46.97;;;25.00;;
62724;SDS011;49026;52.600;4.694;2022-09-23T16:40:55;36.95;;;21.00;;
62724;SDS011;49026;52.600;4.694;2022-09-23T16:43:23;30.67;;;18.63;;
62724;SDS011;49026;52.600;4.694;2022-09-23T16:45:48;39.65;;;20.35;;
62724;SDS011;49026;52.600;4.694;2022-09-23T16:48:13;24.77;;;16.95;;
62724;SDS011;49026;52.600;4.694;2022-09-23T16:50:43;36.67;;;17.40;;
62724;SDS011;49026;52.600;4.694;2022-09-23T16:53:11;29.30;;;18.50;;
62724;SDS011;49026;52.600;4.694;2022-09-23T16:55:40;29.00;;;15.75;;
62724;SDS011;49026;52.600;4.694;2022-09-23T16:58:05;31.75;;;20.10;;
62724;SDS011;49026;52.600;4.694;2022-09-23T17:00:30;30.25;;;20.90;;
62724;SDS011;49026;52.600;4.694;2022-09-23T17:03:14;29.08;;;18.55;;
62724;SDS011;49026;52.600;4.694;2022-09-23T17:05:58;32.97;;;20.33;;
62724;SDS011;49026;52.600;4.694;2022-09-23T17:08:24;34.30;;;21.10;;
62724;SDS011;49026;52.600;4.694;2022-09-23T17:10:53;30.40;;;19.33;;
62724;SDS011;49026;52.600;4.694;2022-09-23T17:13:25;27.73;;;19.48;;
62724;SDS011;49026;52.600;4.694;2022-09-23T17:15:52;31.23;;;19.27;;
62724;SDS011;49026;52.600;4.694;2022-09-23T17:18:18;29.25;;;19.05;;
62724;SDS011;49026;52.600;4.694;2022-09-23T17:20:54;39.45;;;21.17;;
62724;SDS011;49026;52.600;4.694;2022-09-23T17:23:23;29.58;;;18.42;;
62724;SDS011;49026;52.600;4.694;2022-09-23T17:25:52;28.95;;;16.33;;
62724;SDS011;49026;52.600;4.694;2022-09-23T17:28:18;24.17;;;13.88;;
62724;SDS011;49026;52.600;4.694;2022-09-23T17:30:44;14.63;;;6.53;;
62724;SDS011;49026;52.600;4.694;2022-09-23T17:33:13;17.73;;;6.80;;
62724;SDS011;49026;52.600;4.694;2022-09-23T17:35:39;14.43;;;7.75;;
62724;SDS011;49026;52.600;4.694;2022-09-23T17:38:04;214.68;;;18.50;;
62724;SDS011;49026;52.600;4.694;2022-09-23T17:40:30;16.08;;;5.60;;
62724;SDS011;49026;52.600;4.694;2022-09-23T17:42:55;22.08;;;5.35;;
62724;SDS011;49026;52.600;4.694;2022-09-23T17:45:20;10.85;;;5.18;;
62724;SDS011;49026;52.600;4.694;2022-09-23T17:47:46;15.13;;;5.68;;
62724;SDS011;49026;52.600;4.694;2022-09-23T17:50:21;26.23;;;7.22;;
62724;SDS011;49026;52.600;4.694;2022-09-23T17:52:46;15.32;;;7.97;;
62724;SDS011;49026;52.600;4.694;2022-09-23T17:55:15;24.77;;;10.10;;